createdAt,value
2022-07-25T00:01:40.885Z,11.45
2022-07-25T00:03:48.410Z,10.68
2022-07-25T00:05:55.675Z,11.98
2022-07-25T00:08:02.813Z,11.35
2022-07-25T00:10:11.006Z,10.25
2022-07-25T00:12:18.763Z,11.48
2022-07-25T00:14:25.780Z,9.82
2022-07-25T00:16:35.493Z,10.13
2022-07-25T00:18:43.326Z,9.88
2022-07-25T00:20:51.178Z,11.35
2022-07-25T00:22:58.816Z,9.68
2022-07-25T00:25:06.043Z,10.30
2022-07-25T00:27:13.483Z,10.18
2022-07-25T00:29:20.454Z,11.32
2022-07-25T00:31:28.099Z,7.78
2022-07-25T00:33:37.331Z,8.82
2022-07-25T00:35:44.723Z,10.85
2022-07-25T00:37:53.435Z,8.80
2022-07-25T00:40:00.870Z,10.48
2022-07-25T00:42:08.010Z,8.65
2022-07-25T00:44:26.955Z,9.73
2022-07-25T00:46:34.492Z,9.90
2022-07-25T00:48:43.350Z,11.05
2022-07-25T00:50:50.703Z,8.02
2022-07-25T00:52:58.766Z,8.95
2022-07-25T00:55:06.346Z,8.20
2022-07-25T00:57:13.540Z,7.47
2022-07-25T00:59:21.130Z,7.85
2022-07-25T01:01:28.407Z,10.77
2022-07-25T01:03:35.586Z,10.43
2022-07-25T01:05:44.613Z,9.50
2022-07-25T01:07:51.746Z,9.90
2022-07-25T01:09:58.974Z,8.15
2022-07-25T01:12:06.240Z,8.45
2022-07-25T01:14:18.096Z,9.73
2022-07-25T01:16:25.592Z,7.50
2022-07-25T01:18:33.027Z,7.07
2022-07-25T01:20:42.162Z,6.38
2022-07-25T01:22:49.896Z,8.90
2022-07-25T01:24:57.231Z,6.70
2022-07-25T01:27:04.468Z,7.40
2022-07-25T01:29:11.543Z,7.00
2022-07-25T01:31:19.028Z,8.20
2022-07-25T01:33:26.625Z,8.15
2022-07-25T01:35:33.863Z,6.95
2022-07-25T01:37:45.448Z,7.57
2022-07-25T01:39:53.491Z,7.30
2022-07-25T01:42:00.882Z,6.88
2022-07-25T01:44:08.658Z,6.50
2022-07-25T01:46:15.767Z,6.53
2022-07-25T01:48:23.138Z,8.02
2022-07-25T01:50:30.424Z,6.65
2022-07-25T01:52:37.709Z,6.45
2022-07-25T01:54:47.145Z,8.02
2022-07-25T01:56:55.349Z,6.22
2022-07-25T01:59:03.661Z,6.28
2022-07-25T02:01:11.319Z,7.47
2022-07-25T02:03:34.158Z,6.25
2022-07-25T02:05:41.538Z,5.85
2022-07-25T02:07:48.718Z,7.85
2022-07-25T02:09:57.653Z,5.47
2022-07-25T02:12:05.385Z,7.22
2022-07-25T02:14:12.723Z,8.13
2022-07-25T02:16:20.199Z,5.63
2022-07-25T02:18:36.348Z,5.20
2022-07-25T02:20:43.633Z,7.15
2022-07-25T02:22:51.327Z,7.22
2022-07-25T02:25:00.154Z,5.13
2022-07-25T02:27:07.382Z,4.95
2022-07-25T02:29:14.621Z,7.07
2022-07-25T02:31:21.997Z,4.22
2022-07-25T02:33:29.059Z,5.97
2022-07-25T02:35:36.572Z,4.05
2022-07-25T02:37:43.751Z,4.43
2022-07-25T02:39:51.238Z,4.55
2022-07-25T02:42:00.058Z,5.38
2022-07-25T02:44:07.621Z,5.97
2022-07-25T02:46:15.248Z,5.55
2022-07-25T02:48:22.836Z,5.65
2022-07-25T02:50:30.336Z,4.55
2022-07-25T02:52:37.705Z,6.05
2022-07-25T02:54:44.838Z,4.05
2022-07-25T02:56:52.027Z,5.90
2022-07-25T02:59:00.895Z,4.50
2022-07-25T03:01:08.441Z,4.28
2022-07-25T03:03:15.818Z,5.53
2022-07-25T03:05:23.666Z,4.18
2022-07-25T03:07:30.703Z,4.68
2022-07-25T03:09:38.140Z,4.03
2022-07-25T03:11:45.061Z,3.85
2022-07-25T03:13:52.392Z,6.63
2022-07-25T03:16:01.066Z,4.63
2022-07-25T03:18:08.905Z,6.10
2022-07-25T03:20:18.752Z,6.55
2022-07-25T03:22:26.131Z,4.50
2022-07-25T03:24:33.369Z,4.50
2022-07-25T03:26:40.857Z,4.97
2022-07-25T03:28:47.946Z,4.00
2022-07-25T03:30:55.431Z,6.80
2022-07-25T03:33:04.204Z,3.92
2022-07-25T03:35:12.191Z,6.43
2022-07-25T03:37:19.328Z,4.00
2022-07-25T03:39:27.274Z,4.80
2022-07-25T03:41:34.661Z,3.00
2022-07-25T03:43:42.322Z,5.88
2022-07-25T03:45:50.030Z,4.05
2022-07-25T03:47:57.229Z,3.05
2022-07-25T03:50:06.712Z,4.35
2022-07-25T03:52:13.903Z,4.25
2022-07-25T03:54:21.952Z,3.60
2022-07-25T03:56:28.927Z,5.38
2022-07-25T03:58:37.332Z,4.25
2022-07-25T04:00:44.407Z,3.35
2022-07-25T04:02:51.748Z,4.70
2022-07-25T04:04:59.289Z,3.10
2022-07-25T04:07:08.519Z,3.00
2022-07-25T04:09:16.948Z,3.05
2022-07-25T04:11:24.619Z,3.10
2022-07-25T04:13:32.070Z,3.20
2022-07-25T04:15:39.605Z,2.47
2022-07-25T04:17:47.188Z,4.25
2022-07-25T04:19:54.483Z,3.13
2022-07-25T04:22:02.274Z,3.88
2022-07-25T04:24:11.601Z,3.22
2022-07-25T04:26:19.096Z,3.28
2022-07-25T04:28:26.639Z,4.82
2022-07-25T04:30:34.018Z,5.80
2022-07-25T04:32:41.518Z,4.28
2022-07-25T04:34:49.253Z,5.32
2022-07-25T04:36:56.597Z,3.40
2022-07-25T04:39:03.721Z,4.05
2022-07-25T04:41:12.906Z,3.58
2022-07-25T04:43:19.834Z,4.13
2022-07-25T04:45:27.291Z,2.60
2022-07-25T04:47:34.385Z,3.72
2022-07-25T04:49:41.573Z,4.45
2022-07-25T04:51:48.956Z,6.13
2022-07-25T04:53:56.098Z,4.13
2022-07-25T04:56:03.421Z,4.45
2022-07-25T04:58:12.241Z,3.20
2022-07-25T05:00:20.299Z,3.65
2022-07-25T05:02:27.610Z,3.40
2022-07-25T05:04:34.943Z,3.80
2022-07-25T05:06:42.305Z,3.40
2022-07-25T05:08:50.198Z,5.22
2022-07-25T05:10:57.481Z,5.15
2022-07-25T05:13:04.562Z,3.25
2022-07-25T05:15:14.773Z,3.05
2022-07-25T05:17:22.253Z,4.97
2022-07-25T05:19:29.382Z,4.85
2022-07-25T05:21:37.139Z,5.43
2022-07-25T05:23:45.283Z,3.55
2022-07-25T05:25:52.473Z,4.70
2022-07-25T05:28:00.219Z,4.30
2022-07-25T05:30:08.117Z,3.97
2022-07-25T05:32:16.884Z,4.50
2022-07-25T05:34:24.157Z,4.05
2022-07-25T05:36:31.857Z,3.40
2022-07-25T05:38:38.882Z,3.38
2022-07-25T05:40:46.910Z,3.00
2022-07-25T05:42:56.231Z,3.22
2022-07-25T05:45:06.989Z,4.07
2022-07-25T05:47:16.874Z,2.58
2022-07-25T05:49:24.261Z,3.72
2022-07-25T05:51:31.497Z,4.35
2022-07-25T05:53:39.194Z,4.32
2022-07-25T05:55:46.523Z,4.30
2022-07-25T05:57:53.963Z,2.97
2022-07-25T06:00:00.888Z,4.43
2022-07-25T06:02:11.277Z,4.03
2022-07-25T06:04:22.970Z,2.80
2022-07-25T06:06:34.211Z,4.30
2022-07-25T06:08:42.001Z,3.53
2022-07-25T06:10:49.443Z,3.95
2022-07-25T06:12:57.085Z,3.58
2022-07-25T06:15:04.366Z,2.70
2022-07-25T06:17:11.507Z,3.00
2022-07-25T06:19:20.777Z,2.72
2022-07-25T06:21:27.905Z,3.85
2022-07-25T06:23:36.171Z,2.88
2022-07-25T06:25:44.009Z,3.17
2022-07-25T06:27:57.697Z,2.78
2022-07-25T06:30:06.641Z,3.08
2022-07-25T06:32:18.367Z,3.47
2022-07-25T06:34:28.893Z,5.60
2022-07-25T06:36:36.313Z,3.58
2022-07-25T06:38:43.535Z,2.72
2022-07-25T06:40:50.927Z,2.42
2022-07-25T06:42:58.306Z,3.25
2022-07-25T06:45:08.664Z,2.83
2022-07-25T06:47:15.690Z,2.95
2022-07-25T06:49:23.027Z,3.05
2022-07-25T06:51:31.856Z,2.92
2022-07-25T06:53:39.385Z,3.53
2022-07-25T06:55:46.685Z,3.33
2022-07-25T06:57:54.109Z,3.50
2022-07-25T07:00:01.293Z,3.28
2022-07-25T07:02:08.582Z,3.85
2022-07-25T07:04:15.605Z,3.85
2022-07-25T07:06:22.836Z,3.15
2022-07-25T07:08:33.815Z,3.08
2022-07-25T07:10:41.255Z,3.38
2022-07-25T07:12:49.090Z,3.55
2022-07-25T07:14:56.277Z,2.60
2022-07-25T07:17:03.351Z,3.15
2022-07-25T07:19:12.171Z,3.42
2022-07-25T07:21:21.316Z,3.40
2022-07-25T07:23:29.146Z,3.90
2022-07-25T07:25:38.836Z,5.32
2022-07-25T07:27:46.384Z,3.28
2022-07-25T07:29:53.917Z,4.95
2022-07-25T07:32:02.440Z,3.80
2022-07-25T07:34:09.761Z,3.10
2022-07-25T07:36:21.914Z,2.63
2022-07-25T07:38:29.556Z,3.70
2022-07-25T07:40:38.375Z,4.32
2022-07-25T07:42:46.484Z,3.38
2022-07-25T07:44:53.607Z,2.97
2022-07-25T07:47:03.832Z,3.58
2022-07-25T07:49:11.355Z,2.85
2022-07-25T07:51:19.044Z,4.75
2022-07-25T07:53:46.500Z,3.15
2022-07-25T07:55:56.552Z,4.68
2022-07-25T07:58:04.669Z,3.85
2022-07-25T08:00:16.568Z,3.90
2022-07-25T08:02:23.945Z,2.72
2022-07-25T08:04:31.405Z,3.13
2022-07-25T08:06:38.913Z,3.72
2022-07-25T08:08:46.466Z,3.80
2022-07-25T08:10:58.762Z,3.75
2022-07-25T08:13:15.710Z,3.15
2022-07-25T08:15:47.561Z,3.72
2022-07-25T08:20:14.716Z,3.95
2022-07-25T08:22:27.757Z,3.72
2022-07-25T08:24:35.047Z,3.20
2022-07-25T08:26:43.858Z,3.85
2022-07-25T08:29:04.895Z,2.80
2022-07-25T08:31:12.323Z,4.18
2022-07-25T08:33:19.867Z,2.92
2022-07-25T08:35:27.946Z,3.70
2022-07-25T08:37:35.592Z,2.67
2022-07-25T08:39:43.303Z,3.80
2022-07-25T08:41:53.071Z,4.90
2022-07-25T08:44:00.516Z,2.83
2022-07-25T08:46:09.756Z,3.80
2022-07-25T08:48:17.284Z,3.72
2022-07-25T08:50:26.366Z,3.70
2022-07-25T08:52:36.354Z,4.47
2022-07-25T08:54:44.464Z,2.97
2022-07-25T08:56:53.684Z,3.10
2022-07-25T08:59:01.638Z,3.33
2022-07-25T09:01:09.241Z,3.83
2022-07-25T09:03:16.808Z,6.85
2022-07-25T09:05:26.098Z,10.10
2022-07-25T09:07:37.692Z,4.57
2022-07-25T09:09:45.694Z,3.08
2022-07-25T09:11:54.919Z,3.03
2022-07-25T09:14:07.403Z,3.47
2022-07-25T09:16:16.754Z,6.80
2022-07-25T09:18:27.172Z,6.40
2022-07-25T09:20:45.961Z,4.73
2022-07-25T09:22:53.617Z,5.35
2022-07-25T09:25:00.844Z,3.88
2022-07-25T09:27:15.966Z,3.58
2022-07-25T09:29:25.909Z,4.18
2022-07-25T09:31:37.709Z,4.30
2022-07-25T09:33:50.618Z,3.00
2022-07-25T09:35:58.508Z,2.92
2022-07-25T09:38:15.631Z,4.50
2022-07-25T09:40:22.700Z,3.78
2022-07-25T09:42:33.370Z,5.40
2022-07-25T09:44:40.287Z,4.80
2022-07-25T09:46:47.757Z,6.80
2022-07-25T09:49:01.651Z,3.78
2022-07-25T09:51:09.883Z,3.25
2022-07-25T09:53:17.414Z,8.30
2022-07-25T09:55:25.169Z,7.13
2022-07-25T09:57:34.029Z,6.75
2022-07-25T09:59:41.416Z,5.32
2022-07-25T10:01:58.262Z,8.25
2022-07-25T10:04:16.363Z,4.28
2022-07-25T10:06:29.021Z,3.47
2022-07-25T10:08:40.515Z,3.83
2022-07-25T10:10:47.581Z,3.72
2022-07-25T10:13:10.436Z,5.10
2022-07-25T10:15:18.276Z,13.35
2022-07-25T10:17:25.456Z,6.68
2022-07-25T10:19:50.881Z,3.80
2022-07-25T10:21:59.446Z,7.93
2022-07-25T10:24:07.701Z,4.82
2022-07-25T10:26:17.275Z,3.90
2022-07-25T10:28:26.108Z,3.15
2022-07-25T10:30:38.679Z,4.57
2022-07-25T10:32:54.294Z,5.85
2022-07-25T10:35:01.609Z,4.22
2022-07-25T10:37:16.073Z,3.85
2022-07-25T10:39:24.196Z,5.72
2022-07-25T10:41:33.403Z,7.38
2022-07-25T10:43:48.180Z,7.88
2022-07-25T10:45:57.604Z,5.78
2022-07-25T10:48:11.485Z,6.72
2022-07-25T10:50:40.379Z,6.07
2022-07-25T10:53:02.369Z,9.32
2022-07-25T10:55:10.515Z,5.72
2022-07-25T10:57:19.536Z,10.45
2022-07-25T10:59:36.853Z,8.23
2022-07-25T11:01:50.661Z,6.45
2022-07-25T11:03:59.533Z,6.28
2022-07-25T11:06:08.226Z,6.95
2022-07-25T11:08:22.002Z,9.52
2022-07-25T11:10:32.778Z,8.70
2022-07-25T11:12:46.876Z,9.68
2022-07-25T11:15:14.485Z,8.70
2022-07-25T11:17:27.452Z,11.07
2022-07-25T11:19:39.239Z,11.07
2022-07-25T11:21:50.936Z,13.00
2022-07-25T11:23:58.268Z,11.57
2022-07-25T11:26:10.115Z,6.72
2022-07-25T11:28:31.573Z,7.72
2022-07-25T11:30:41.620Z,4.38
2022-07-25T11:32:52.163Z,6.68
2022-07-25T11:35:00.550Z,6.30
2022-07-25T11:37:10.183Z,5.07
2022-07-25T11:39:22.429Z,6.70
2022-07-25T11:41:34.576Z,4.95
2022-07-25T11:43:41.708Z,6.70
2022-07-25T11:46:01.043Z,5.97
2022-07-25T11:48:10.099Z,5.32
2022-07-25T11:50:20.559Z,3.90
2022-07-25T11:52:30.967Z,3.55
2022-07-25T11:54:38.352Z,4.35
2022-07-25T11:56:48.251Z,4.07
2022-07-25T11:59:02.928Z,3.63
2022-07-25T12:01:17.969Z,3.40
2022-07-25T12:03:25.266Z,5.20
2022-07-25T12:05:36.889Z,5.45
2022-07-25T12:07:46.789Z,6.22
2022-07-25T12:10:00.985Z,3.35
2022-07-25T12:12:09.237Z,6.22
2022-07-25T12:14:16.737Z,5.30
2022-07-25T12:16:25.807Z,6.45
2022-07-25T12:18:33.041Z,6.72
2022-07-25T12:20:42.226Z,8.75
2022-07-25T12:22:49.457Z,6.28
2022-07-25T12:24:56.730Z,4.70
2022-07-25T12:27:04.075Z,9.18
2022-07-25T12:29:11.609Z,5.82
2022-07-25T12:31:18.792Z,3.78
2022-07-25T12:33:28.226Z,5.53
2022-07-25T12:35:35.560Z,7.55
2022-07-25T12:37:43.672Z,6.18
2022-07-25T12:39:51.096Z,6.55
2022-07-25T12:41:58.238Z,7.35
2022-07-25T12:44:05.460Z,4.53
2022-07-25T12:46:13.113Z,5.53
2022-07-25T12:48:20.441Z,4.68
2022-07-25T12:50:29.310Z,4.55
2022-07-25T12:52:36.695Z,4.07
2022-07-25T12:54:44.246Z,5.07
2022-07-25T12:56:51.627Z,4.55
2022-07-25T12:58:59.010Z,4.13
2022-07-25T13:01:07.006Z,5.30
2022-07-25T13:03:14.244Z,4.13
2022-07-25T13:05:21.590Z,5.63
2022-07-25T13:07:30.509Z,5.20
2022-07-25T13:09:37.694Z,4.45
2022-07-25T13:11:45.170Z,7.18
2022-07-25T13:13:52.358Z,7.45
2022-07-25T13:16:00.058Z,5.75
2022-07-25T13:18:07.292Z,6.80
2022-07-25T13:20:16.867Z,4.95
2022-07-25T13:22:23.952Z,8.23
2022-07-25T13:24:32.882Z,8.60
2022-07-25T13:26:40.563Z,9.75
2022-07-25T13:28:47.905Z,6.45
2022-07-25T13:30:55.086Z,10.45
2022-07-25T13:33:02.108Z,9.18
2022-07-25T13:35:10.009Z,8.30
2022-07-25T13:37:17.704Z,9.45
2022-07-25T13:39:24.992Z,9.57
2022-07-25T13:41:33.762Z,8.10
2022-07-25T13:43:41.396Z,8.90
2022-07-25T13:45:49.073Z,11.13
2022-07-25T13:48:18.998Z,7.53
2022-07-25T13:50:23.624Z,8.93
2022-07-25T13:52:30.805Z,6.88
2022-07-25T13:54:38.550Z,8.05
2022-07-25T13:56:47.430Z,9.88
2022-07-25T13:58:54.963Z,8.02
2022-07-25T14:01:02.204Z,8.15
2022-07-25T14:03:09.739Z,8.93
2022-07-25T14:05:17.223Z,7.32
2022-07-25T14:07:24.508Z,8.48
2022-07-25T14:09:31.843Z,6.45
2022-07-25T14:11:38.681Z,8.18
2022-07-25T14:13:47.903Z,8.93
2022-07-25T14:15:55.036Z,7.25
2022-07-25T14:18:02.469Z,7.32
2022-07-25T14:20:11.134Z,7.28
2022-07-25T14:22:18.419Z,7.82
2022-07-25T14:24:25.701Z,8.48
2022-07-25T14:26:33.135Z,7.78
2022-07-25T14:28:40.572Z,9.38
2022-07-25T14:30:49.662Z,6.90
2022-07-25T14:32:56.676Z,7.85
2022-07-25T14:35:03.868Z,6.55
2022-07-25T14:37:11.294Z,7.95
2022-07-25T14:39:20.025Z,8.52
2022-07-25T14:41:27.107Z,8.05
2022-07-25T14:43:34.492Z,8.32
2022-07-25T14:45:41.817Z,9.52
2022-07-25T14:47:50.698Z,8.07
2022-07-25T14:49:57.985Z,10.80
2022-07-25T14:52:04.906Z,10.15
2022-07-25T14:54:12.081Z,11.30
2022-07-25T14:56:20.089Z,7.70
2022-07-25T14:58:27.515Z,7.97
2022-07-25T15:00:34.974Z,8.25
2022-07-25T15:02:42.351Z,10.55
2022-07-25T15:04:51.203Z,9.23
2022-07-25T15:06:58.917Z,11.32
2022-07-25T15:09:06.453Z,8.35
2022-07-25T15:11:14.547Z,9.07
2022-07-25T15:13:31.582Z,9.90
2022-07-25T15:15:39.326Z,9.52
2022-07-25T15:17:46.703Z,12.23
2022-07-25T15:19:55.523Z,10.18
2022-07-25T15:22:02.591Z,11.50
2022-07-25T15:24:10.539Z,10.07
2022-07-25T15:26:17.838Z,10.18
2022-07-25T15:28:25.009Z,12.32
2022-07-25T15:30:32.390Z,12.25
2022-07-25T15:32:40.292Z,11.40
2022-07-25T15:34:47.472Z,12.77
2022-07-25T15:36:57.580Z,10.82
2022-07-25T15:39:05.271Z,11.55
2022-07-25T15:41:13.431Z,15.32
2022-07-25T15:43:20.403Z,14.73
2022-07-25T15:45:33.397Z,11.43
2022-07-25T15:47:41.524Z,14.88
2022-07-25T15:49:48.629Z,11.82
2022-07-25T15:51:57.624Z,13.23
2022-07-25T15:54:04.854Z,14.75
2022-07-25T15:56:12.766Z,15.32
2022-07-25T15:58:19.998Z,14.55
2022-07-25T16:00:29.612Z,15.93
2022-07-25T16:02:37.635Z,17.13
2022-07-25T16:04:45.075Z,15.77
2022-07-25T16:06:52.255Z,17.00
2022-07-25T16:09:01.383Z,13.15
2022-07-25T16:11:09.311Z,13.18
2022-07-25T16:13:16.357Z,14.43
2022-07-25T16:15:23.478Z,13.02
2022-07-25T16:17:31.126Z,14.93
2022-07-25T16:19:38.513Z,18.08
2022-07-25T16:21:45.752Z,12.30
2022-07-25T16:23:53.639Z,12.82
2022-07-25T16:26:02.618Z,15.32
2022-07-25T16:28:10.718Z,14.18
2022-07-25T16:30:18.470Z,14.25
2022-07-25T16:32:25.600Z,18.75
2022-07-25T16:34:32.784Z,14.45
2022-07-25T16:36:40.213Z,13.25
2022-07-25T16:38:48.929Z,14.52
2022-07-25T16:40:56.010Z,17.25
2022-07-25T16:43:05.085Z,15.95
2022-07-25T16:45:13.188Z,12.80
2022-07-25T16:47:20.419Z,15.93
2022-07-25T16:49:27.703Z,13.63
2022-07-25T16:51:37.132Z,14.85
2022-07-25T16:53:44.531Z,17.25
2022-07-25T16:55:52.222Z,12.75
2022-07-25T16:58:00.696Z,17.25
2022-07-25T17:00:11.153Z,18.48
2022-07-25T17:02:18.809Z,15.13
2022-07-25T17:04:25.982Z,13.73
2022-07-25T17:06:33.397Z,12.70
2022-07-25T17:08:40.994Z,14.55
2022-07-25T17:10:48.582Z,16.92
2022-07-25T17:12:55.732Z,14.50
2022-07-25T17:15:02.956Z,15.65
2022-07-25T17:17:11.972Z,15.25
2022-07-25T17:19:19.511Z,15.07
2022-07-25T17:21:26.692Z,18.10
2022-07-25T17:23:34.589Z,13.75
2022-07-25T17:25:46.160Z,12.70
2022-07-25T17:27:55.826Z,16.40
2022-07-25T17:30:02.944Z,12.25
2022-07-25T17:32:12.496Z,16.10
2022-07-25T17:34:19.573Z,14.18
2022-07-25T17:36:27.152Z,13.90
2022-07-25T17:38:35.994Z,13.25
2022-07-25T17:40:43.616Z,13.90
2022-07-25T17:42:50.798Z,11.45
2022-07-25T17:44:58.344Z,15.63
2022-07-25T17:47:05.726Z,13.82
2022-07-25T17:49:15.075Z,12.93
2022-07-25T17:51:22.344Z,12.35
2022-07-25T17:53:29.734Z,11.00
2022-07-25T17:55:39.014Z,13.27
2022-07-25T17:57:47.621Z,11.73
2022-07-25T17:59:54.961Z,11.70
2022-07-25T18:02:02.354Z,13.32
2022-07-25T18:04:09.852Z,12.20
2022-07-25T18:06:19.317Z,12.45
2022-07-25T18:08:26.459Z,13.68
2022-07-25T18:10:34.095Z,12.63
2022-07-25T18:12:41.065Z,13.02
2022-07-25T18:14:48.670Z,11.38
2022-07-25T18:16:55.596Z,9.90
2022-07-25T18:19:03.126Z,11.85
2022-07-25T18:21:10.210Z,12.75
2022-07-25T18:23:19.177Z,12.43
2022-07-25T18:25:26.370Z,17.33
2022-07-25T18:27:33.751Z,12.45
2022-07-25T18:29:41.492Z,15.15
2022-07-25T18:31:48.785Z,18.73
2022-07-25T18:33:55.902Z,16.00
2022-07-25T18:36:07.424Z,15.32
2022-07-25T18:38:15.162Z,16.38
2022-07-25T18:40:24.262Z,15.52
2022-07-25T18:42:31.195Z,12.88
2022-07-25T18:44:38.585Z,12.90
2022-07-25T18:46:48.091Z,11.35
2022-07-25T18:48:55.787Z,14.35
2022-07-25T18:51:03.083Z,12.70
2022-07-25T18:53:10.675Z,13.15
2022-07-25T18:55:17.866Z,12.57
2022-07-25T18:57:26.628Z,13.48
2022-07-25T18:59:34.273Z,13.93
2022-07-25T19:01:41.504Z,10.32
2022-07-25T19:03:48.787Z,13.77
2022-07-25T19:05:57.711Z,10.20
2022-07-25T19:08:09.866Z,10.90
2022-07-25T19:10:16.996Z,12.80
2022-07-25T19:12:27.652Z,10.57
2022-07-25T19:14:35.503Z,11.93
2022-07-25T19:16:42.857Z,13.45
2022-07-25T19:18:50.173Z,7.93
2022-07-25T19:20:57.400Z,11.52
2022-07-25T19:23:04.683Z,12.10
2022-07-25T19:25:13.096Z,11.32
2022-07-25T19:27:20.591Z,10.52
2022-07-25T19:29:29.363Z,12.73
2022-07-25T19:31:36.527Z,15.30
2022-07-25T19:33:43.869Z,13.82
2022-07-25T19:35:51.059Z,18.50
2022-07-25T19:37:59.523Z,15.70
2022-07-25T19:40:07.526Z,12.15
2022-07-25T19:42:15.105Z,13.25
2022-07-25T19:44:22.195Z,12.93
2022-07-25T19:46:35.132Z,11.13
2022-07-25T19:48:42.388Z,9.98
2022-07-25T19:50:49.617Z,11.65
2022-07-25T19:52:56.610Z,15.35
2022-07-25T19:55:03.889Z,15.23
2022-07-25T19:57:11.319Z,15.85
2022-07-25T19:59:18.350Z,13.75
2022-07-25T20:01:26.703Z,13.88
2022-07-25T20:03:35.576Z,13.25
2022-07-25T20:05:42.970Z,13.40
2022-07-25T20:07:50.039Z,16.33
2022-07-25T20:09:57.278Z,14.88
2022-07-25T20:12:05.629Z,15.30
2022-07-25T20:14:13.686Z,13.88
2022-07-25T20:16:21.102Z,16.90
2022-07-25T20:18:28.711Z,14.82
2022-07-25T20:20:37.533Z,17.67
2022-07-25T20:22:46.774Z,17.05
2022-07-25T20:24:55.436Z,18.52
2022-07-25T20:27:03.277Z,18.58
2022-07-25T20:29:10.819Z,20.60
2022-07-25T20:31:18.601Z,16.90
2022-07-25T20:33:28.197Z,16.88
2022-07-25T20:35:37.326Z,15.77
2022-07-25T20:37:44.775Z,15.07
2022-07-25T20:39:52.251Z,16.73
2022-07-25T20:41:59.332Z,15.35
2022-07-25T20:44:06.873Z,14.75
2022-07-25T20:46:13.869Z,12.05
2022-07-25T20:48:21.541Z,14.93
2022-07-25T20:50:28.723Z,15.02
2022-07-25T20:52:37.852Z,13.93
2022-07-25T20:54:45.287Z,17.83
2022-07-25T20:56:52.790Z,18.15
2022-07-25T20:58:59.921Z,17.77
2022-07-25T21:01:07.429Z,19.55
2022-07-25T21:03:14.591Z,15.65
2022-07-25T21:05:22.375Z,15.27
2022-07-25T21:07:29.513Z,11.77
2022-07-25T21:09:38.736Z,15.18
2022-07-25T21:11:45.865Z,16.10
2022-07-25T21:13:53.257Z,15.85
2022-07-25T21:16:00.432Z,14.38
2022-07-25T21:18:08.127Z,13.98
2022-07-25T21:20:17.974Z,14.30
2022-07-25T21:22:25.664Z,12.88
2022-07-25T21:24:32.946Z,16.52
2022-07-25T21:26:42.025Z,14.43
2022-07-25T21:28:49.158Z,13.27
2022-07-25T21:30:56.490Z,12.73
2022-07-25T21:33:03.732Z,12.75
2022-07-25T21:35:21.761Z,14.88
2022-07-25T21:37:29.257Z,13.85
2022-07-25T21:39:36.895Z,15.52
2022-07-25T21:41:46.670Z,15.65
2022-07-25T21:43:54.127Z,10.35
2022-07-25T21:46:01.163Z,12.85
2022-07-25T21:48:09.713Z,12.70
2022-07-25T21:50:33.497Z,13.57
2022-07-25T21:52:40.819Z,11.80
2022-07-25T21:54:48.312Z,14.00
2022-07-25T21:56:57.235Z,11.45
2022-07-25T21:59:04.717Z,16.08
2022-07-25T22:01:12.286Z,14.82
2022-07-25T22:03:19.494Z,12.55
2022-07-25T22:05:26.979Z,13.27
2022-07-25T22:07:34.990Z,14.18
2022-07-25T22:09:42.318Z,13.20
2022-07-25T22:11:49.291Z,15.00
2022-07-25T22:13:58.169Z,15.50
2022-07-25T22:16:06.154Z,14.60
2022-07-25T22:18:13.713Z,20.92
2022-07-25T22:20:21.402Z,15.20
2022-07-25T22:22:28.840Z,13.02
2022-07-25T22:24:36.336Z,15.95
2022-07-25T22:26:43.610Z,14.35
2022-07-25T22:28:51.874Z,12.18
2022-07-25T22:31:00.751Z,14.93
2022-07-25T22:33:07.815Z,13.25
2022-07-25T22:35:15.011Z,12.95
2022-07-25T22:37:22.444Z,12.68
2022-07-25T22:39:29.872Z,12.77
2022-07-25T22:41:39.157Z,15.48
2022-07-25T22:43:57.496Z,16.33
2022-07-25T22:46:08.551Z,16.58
2022-07-25T22:48:15.866Z,18.33
2022-07-25T22:50:22.843Z,14.75
2022-07-25T22:52:30.126Z,17.02
2022-07-25T22:54:37.295Z,14.35
2022-07-25T22:56:44.488Z,15.98
2022-07-25T22:58:51.568Z,16.73
2022-07-25T23:00:58.794Z,15.77
2022-07-25T23:03:07.874Z,14.32
2022-07-25T23:05:15.415Z,14.18
2022-07-25T23:07:22.842Z,14.70
2022-07-25T23:09:36.197Z,17.35
2022-07-25T23:11:43.710Z,13.48
2022-07-25T23:13:51.104Z,13.13
2022-07-25T23:15:58.400Z,13.07
2022-07-25T23:18:07.471Z,15.95
2022-07-25T23:20:16.283Z,17.77
2022-07-25T23:22:24.851Z,19.08
2022-07-25T23:24:35.812Z,17.35
2022-07-25T23:26:45.551Z,21.25
2022-07-25T23:28:52.593Z,18.58
2022-07-25T23:30:59.762Z,17.23
2022-07-25T23:33:10.541Z,17.23
2022-07-25T23:35:18.685Z,18.65
2022-07-25T23:37:25.913Z,17.23
2022-07-25T23:39:33.579Z,18.38
2022-07-25T23:41:40.634Z,20.42
2022-07-25T23:43:57.506Z,21.38
2022-07-25T23:46:06.922Z,21.58
2022-07-25T23:48:16.414Z,17.20
2022-07-25T23:50:23.855Z,18.45
2022-07-25T23:52:31.039Z,20.00
2022-07-25T23:54:39.392Z,19.00
2022-07-25T23:56:46.624Z,21.85
2022-07-25T23:58:53.760Z,22.17
